Terminal Aerodrome Forecast
Issued by NWS Cleveland, OH

Home | Current Version | Previous Version | Graphics & Text | Print | Product List | Glossary On
Versions: 1 2 3 4 5 6 7 8 9 10 11 12 13 14 15 16 17
000
FTUS41 KCLE 191500 AAB
TAFTOL
TAF AMD
KTOL 191512Z 1915/2012 VRB03KT P6SM OVC025
     FM191900 VRB03KT P6SM SCT035 BKN050
     FM200000 VRB03KT P6SM SCT035
     FM200900 00000KT 2SM BR SCT010=

USA.gov is the U.S. government's official web portal to all federal, state and local government web resources and services.